SAS99 ZBAD-ESSA
Flight info
| Callsign | SAS99 |
|---|---|
| Flight time | N/A |
| Altitude | 41000 |
| Route | PEGSO7F PEGSO B215 LUVES/K0907S1100 B215 IBANO G470 AKLAS W192 FKG A368 TCH/K0902S1160 A368 SARIN/K0900F380 N161 GASBI/N0490F400 N161 LEYLA N644 TETRO M10 SARPI DCT KARDE DCT SIN DCT ODERO DCT GEMTO DCT PENOR DCT NILUG |
| Aircraft | A359/H-SDE2E3GHIJ3J4J5LM1ORWXY/LB1D1 |
Departure
| Time | 2026-05-04 15:07 |
|---|---|
| Airport | Beijing Daxing International Airport (ZBAD) |
Arrival
| Time | N/A |
|---|---|
| Airport | Stockholm-Arlanda Airport (ESSA) |
| Time | Latitude | Longitude | Altitude | Speed | Heading |
|---|---|---|---|---|---|
| 2026-05-04 14:56 | 39.50575 | 116.41027 | 118 ft | 0 kts | 95° |
| 2026-05-04 14:59 | 39.50576 | 116.41022 | 95 ft | 2 kts | 95° |
| 2026-05-04 15:00 | 39.50578 | 116.41000 | 91 ft | 2 kts | 103° |
| 2026-05-04 15:00 | 39.50583 | 116.40980 | 91 ft | 2 kts | 117° |
| 2026-05-04 15:00 | 39.50593 | 116.40963 | 92 ft | 2 kts | 148° |
| 2026-05-04 15:01 | 39.50615 | 116.40955 | 93 ft | 0 kts | 174° |
| 2026-05-04 15:01 | 39.50616 | 116.40955 | 93 ft | 0 kts | 174° |
| 2026-05-04 15:02 | 39.50573 | 116.40942 | 93 ft | 12 kts | 226° |
| 2026-05-04 15:03 | 39.50514 | 116.40795 | 94 ft | 25 kts | 246° |
| 2026-05-04 15:03 | 39.50481 | 116.40604 | 96 ft | 19 kts | 261° |
| 2026-05-04 15:03 | 39.50500 | 116.40453 | 95 ft | 16 kts | 310° |
| 2026-05-04 15:03 | 39.50581 | 116.40361 | 96 ft | 16 kts | 320° |
| 2026-05-04 15:04 | 39.50665 | 116.40270 | 94 ft | 16 kts | 320° |
| 2026-05-04 15:04 | 39.50764 | 116.40223 | 95 ft | 17 kts | 353° |
| 2026-05-04 15:04 | 39.50908 | 116.40200 | 95 ft | 24 kts | 353° |
| 2026-05-04 15:04 | 39.51082 | 116.40171 | 92 ft | 10 kts | 352° |
| 2026-05-04 15:05 | 39.51128 | 116.40136 | 95 ft | 13 kts | 294° |
| 2026-05-04 15:05 | 39.51130 | 116.39962 | 95 ft | 21 kts | 285° |
| 2026-05-04 15:05 | 39.51206 | 116.39925 | 95 ft | 20 kts | 0° |
| 2026-05-04 15:05 | 39.51347 | 116.39842 | 98 ft | 21 kts | 278° |
| 2026-05-04 15:06 | 39.51320 | 116.39702 | 104 ft | 14 kts | 210° |
| 2026-05-04 15:06 | 39.51279 | 116.39697 | 105 ft | 0 kts | 174° |
| 2026-05-04 15:07 | 39.51131 | 116.39720 | 102 ft | 53 kts | 173° |
| 2026-05-04 15:07 | 39.50542 | 116.39813 | 104 ft | 116 kts | 173° |
| 2026-05-04 15:07 | 39.49555 | 116.39969 | 104 ft | 169 kts | 173° |
| 2026-05-04 15:07 | 39.48385 | 116.40165 | 734 ft | 166 kts | 174° |
| 2026-05-04 15:08 | 39.47217 | 116.40272 | 1401 ft | 169 kts | 187° |
| 2026-05-04 15:08 | 39.46041 | 116.40246 | 1936 ft | 168 kts | 187° |
| 2026-05-04 15:08 | 39.44839 | 116.40214 | 2262 ft | 179 kts | 188° |
| 2026-05-04 15:08 | 39.43559 | 116.40156 | 2531 ft | 192 kts | 189° |
| 2026-05-04 15:09 | 39.42158 | 116.40091 | 2757 ft | 210 kts | 185° |
| 2026-05-04 15:09 | 39.40636 | 116.40263 | 3064 ft | 229 kts | 176° |
| 2026-05-04 15:09 | 39.39034 | 116.40646 | 3351 ft | 243 kts | 176° |
| 2026-05-04 15:10 | 39.35507 | 116.41312 | 4071 ft | 262 kts | 181° |
| 2026-05-04 15:10 | 39.33835 | 116.40809 | 4898 ft | 240 kts | 215° |
| 2026-05-04 15:10 | 39.31831 | 116.37321 | 5784 ft | 251 kts | 244° |
| 2026-05-04 15:11 | 39.31048 | 116.35306 | 6398 ft | 253 kts | 243° |
| 2026-05-04 15:11 | 39.30223 | 116.33254 | 6899 ft | 258 kts | 243° |
| 2026-05-04 15:11 | 39.29375 | 116.31198 | 7403 ft | 262 kts | 242° |
| 2026-05-04 15:11 | 39.28505 | 116.29123 | 7701 ft | 264 kts | 242° |
| 2026-05-04 15:12 | 39.27630 | 116.27056 | 7759 ft | 265 kts | 242° |
| 2026-05-04 15:12 | 39.26741 | 116.24968 | 7759 ft | 266 kts | 242° |
| 2026-05-04 15:12 | 39.25842 | 116.22862 | 7756 ft | 267 kts | 242° |
| 2026-05-04 15:12 | 39.24944 | 116.20763 | 7757 ft | 267 kts | 242° |
| 2026-05-04 15:13 | 39.24056 | 116.18688 | 7756 ft | 267 kts | 242° |
| 2026-05-04 15:13 | 39.23157 | 116.16591 | 7756 ft | 267 kts | 242° |
| 2026-05-04 15:13 | 39.22259 | 116.14497 | 7761 ft | 267 kts | 242° |
| 2026-05-04 15:13 | 39.21360 | 116.12404 | 7758 ft | 267 kts | 242° |
| 2026-05-04 15:14 | 39.20459 | 116.10305 | 7759 ft | 267 kts | 242° |
| 2026-05-04 15:14 | 39.19555 | 116.08213 | 7896 ft | 267 kts | 242° |
| 2026-05-04 15:14 | 39.18647 | 116.06098 | 8321 ft | 271 kts | 242° |
| 2026-05-04 15:14 | 39.17742 | 116.03988 | 8951 ft | 273 kts | 242° |
| 2026-05-04 15:15 | 39.16815 | 116.01834 | 9551 ft | 276 kts | 243° |
| 2026-05-04 15:15 | 39.15877 | 115.99653 | 10054 ft | 282 kts | 243° |
| 2026-05-04 15:15 | 39.14897 | 115.97370 | 10318 ft | 298 kts | 243° |
| 2026-05-04 15:16 | 39.12783 | 115.92482 | 10847 ft | 326 kts | 242° |
| 2026-05-04 15:16 | 39.11654 | 115.89882 | 11114 ft | 339 kts | 242° |
| 2026-05-04 15:16 | 39.09265 | 115.84385 | 11618 ft | 364 kts | 242° |
| 2026-05-04 15:17 | 39.08005 | 115.81489 | 11883 ft | 375 kts | 242° |
| 2026-05-04 15:17 | 39.05419 | 115.75553 | 12740 ft | 385 kts | 242° |
| 2026-05-04 15:17 | 39.04096 | 115.72520 | 13212 ft | 389 kts | 241° |
| 2026-05-04 15:18 | 39.02384 | 115.68599 | 13791 ft | 395 kts | 242° |
| 2026-05-04 15:18 | 38.99663 | 115.62376 | 14765 ft | 398 kts | 242° |
| 2026-05-04 15:18 | 38.96927 | 115.56129 | 15766 ft | 404 kts | 242° |
| 2026-05-04 15:19 | 38.91791 | 115.43146 | 17659 ft | 415 kts | 246° |
| 2026-05-04 15:19 | 38.89447 | 115.36308 | 18484 ft | 423 kts | 247° |
| 2026-05-04 15:19 | 38.84585 | 115.22334 | 20203 ft | 433 kts | 247° |
| 2026-05-04 15:20 | 38.82079 | 115.15235 | 21089 ft | 439 kts | 248° |
| 2026-05-04 15:20 | 38.79533 | 115.08043 | 21974 ft | 445 kts | 248° |
| 2026-05-04 15:20 | 38.76993 | 115.00882 | 22816 ft | 451 kts | 248° |
| 2026-05-04 15:20 | 38.74367 | 114.93473 | 23564 ft | 459 kts | 248° |
| 2026-05-04 15:21 | 38.71696 | 114.85966 | 24260 ft | 465 kts | 248° |
| 2026-05-04 15:21 | 38.68992 | 114.78393 | 24955 ft | 470 kts | 248° |
| 2026-05-04 15:21 | 38.63476 | 114.62992 | 26298 ft | 482 kts | 248° |
| 2026-05-04 15:22 | 38.60658 | 114.55154 | 26944 ft | 487 kts | 248° |
| 2026-05-04 15:22 | 38.57816 | 114.47332 | 27573 ft | 492 kts | 248° |
| 2026-05-04 15:22 | 38.51973 | 114.31253 | 28776 ft | 502 kts | 248° |
| 2026-05-04 15:23 | 38.49012 | 114.23122 | 29352 ft | 506 kts | 248° |
| 2026-05-04 15:23 | 38.46031 | 114.14964 | 30131 ft | 504 kts | 248° |
| 2026-05-04 15:23 | 38.43094 | 114.06950 | 30809 ft | 502 kts | 248° |
| 2026-05-04 15:23 | 38.40140 | 113.98923 | 31417 ft | 501 kts | 248° |
| 2026-05-04 15:24 | 38.34252 | 113.82905 | 32654 ft | 496 kts | 248° |
| 2026-05-04 15:24 | 38.28291 | 113.67034 | 33537 ft | 497 kts | 248° |
| 2026-05-04 15:25 | 38.25324 | 113.59210 | 33929 ft | 497 kts | 248° |
| 2026-05-04 15:25 | 38.22296 | 113.51226 | 33935 ft | 499 kts | 247° |
| 2026-05-04 15:26 | 38.14236 | 113.30005 | 33939 ft | 500 kts | 248° |
| 2026-05-04 15:26 | 38.05345 | 113.06146 | 33938 ft | 499 kts | 247° |
| 2026-05-04 15:27 | 37.96353 | 112.82296 | 33931 ft | 500 kts | 247° |
| 2026-05-04 15:28 | 37.87294 | 112.58455 | 33937 ft | 499 kts | 246° |
| 2026-05-04 15:29 | 37.78480 | 112.34746 | 33940 ft | 493 kts | 262° |
| 2026-05-04 15:30 | 37.80744 | 112.00740 | 33952 ft | 487 kts | 279° |
| 2026-05-04 15:30 | 37.83150 | 111.75187 | 33947 ft | 487 kts | 279° |
| 2026-05-04 15:31 | 37.85846 | 111.49842 | 33945 ft | 486 kts | 280° |
| 2026-05-04 15:32 | 37.89546 | 111.07317 | 33914 ft | 486 kts | 278° |
| 2026-05-04 15:34 | 37.93063 | 110.65109 | 33866 ft | 485 kts | 277° |
| 2026-05-04 15:34 | 37.93851 | 110.56837 | 33765 ft | 480 kts | 283° |
| 2026-05-04 15:34 | 37.95781 | 110.40329 | 33910 ft | 464 kts | 282° |
| 2026-05-04 15:35 | 37.96884 | 110.24139 | 33617 ft | 465 kts | 277° |
| 2026-05-04 15:35 | 37.97535 | 110.16140 | 33470 ft | 461 kts | 278° |
| 2026-05-04 15:35 | 37.98626 | 110.08244 | 33906 ft | 450 kts | 277° |
| 2026-05-04 15:36 | 38.00019 | 109.92652 | 33766 ft | 449 kts | 287° |
| 2026-05-04 15:36 | 38.01363 | 109.77000 | 33831 ft | 443 kts | 280° |
| 2026-05-04 15:37 | 38.03210 | 109.61908 | 33752 ft | 434 kts | 277° |
| 2026-05-04 15:37 | 38.04306 | 109.47109 | 33874 ft | 425 kts | 286° |
| 2026-05-04 15:38 | 38.05008 | 109.39683 | 33674 ft | 426 kts | 277° |
| 2026-05-04 15:38 | 38.05900 | 109.32330 | 33713 ft | 424 kts | 274° |
| 2026-05-04 15:38 | 38.06703 | 109.24773 | 33423 ft | 423 kts | 283° |
| 2026-05-04 15:38 | 38.07161 | 109.17644 | 33734 ft | 416 kts | 280° |
| 2026-05-04 15:39 | 38.08293 | 109.03217 | 33732 ft | 408 kts | 279° |
| 2026-05-04 15:39 | 38.09630 | 108.89224 | 33793 ft | 393 kts | 282° |
| 2026-05-04 15:40 | 38.10357 | 108.82505 | 33793 ft | 389 kts | 279° |
| 2026-05-04 15:40 | 38.11307 | 108.69040 | 33782 ft | 382 kts | 273° |
| 2026-05-04 15:40 | 38.11886 | 108.62366 | 33633 ft | 380 kts | 280° |
| 2026-05-04 15:41 | 38.12582 | 108.55907 | 33796 ft | 368 kts | 283° |
| 2026-05-04 15:41 | 38.13502 | 108.43078 | 33707 ft | 362 kts | 280° |
| 2026-05-04 15:41 | 38.14083 | 108.36866 | 33695 ft | 350 kts | 274° |
| 2026-05-04 15:42 | 38.14484 | 108.30930 | 33773 ft | 340 kts | 278° |
| 2026-05-04 15:42 | 38.14808 | 108.25207 | 33708 ft | 329 kts | 285° |
| 2026-05-04 15:42 | 38.15834 | 108.22573 | 32937 ft | 341 kts | 315° |
| 2026-05-04 15:42 | 38.17786 | 108.20769 | 32080 ft | 359 kts | 341° |
| 2026-05-04 15:43 | 38.20155 | 108.20351 | 32636 ft | 333 kts | 9° |
| 2026-05-04 15:43 | 38.22194 | 108.21412 | 33474 ft | 314 kts | 37° |
| 2026-05-04 15:43 | 38.23577 | 108.23615 | 33243 ft | 328 kts | 65° |
| 2026-05-04 15:43 | 38.24017 | 108.26577 | 32216 ft | 366 kts | 93° |
| 2026-05-04 15:44 | 38.23356 | 108.29760 | 31932 ft | 374 kts | 116° |
| 2026-05-04 15:44 | 38.21878 | 108.32247 | 32978 ft | 341 kts | 139° |
| 2026-05-04 15:44 | 38.19897 | 108.33802 | 33502 ft | 327 kts | 161° |
| 2026-05-04 15:44 | 38.17633 | 108.34356 | 32852 ft | 345 kts | 182° |
| 2026-05-04 15:45 | 38.15237 | 108.33855 | 31816 ft | 374 kts | 202° |
| 2026-05-04 15:45 | 38.12952 | 108.32185 | 31747 ft | 366 kts | 225° |
| 2026-05-04 15:45 | 38.11493 | 108.29845 | 32670 ft | 327 kts | 249° |
| 2026-05-04 15:45 | 38.10851 | 108.27224 | 33151 ft | 303 kts | 270° |
| 2026-05-04 15:46 | 38.11004 | 108.24578 | 32686 ft | 309 kts | 291° |
| 2026-05-04 15:46 | 38.11956 | 108.22111 | 31922 ft | 325 kts | 310° |
| 2026-05-04 15:46 | 38.13634 | 108.20098 | 31571 ft | 332 kts | 329° |
| 2026-05-04 15:46 | 38.15655 | 108.18882 | 31940 ft | 316 kts | 345° |
| 2026-05-04 15:47 | 38.17736 | 108.18495 | 32567 ft | 294 kts | 1° |
| 2026-05-04 15:47 | 38.19703 | 108.18885 | 32766 ft | 289 kts | 18° |
| 2026-05-04 15:47 | 38.21534 | 108.20048 | 32367 ft | 304 kts | 34° |
| 2026-05-04 15:47 | 38.23096 | 108.21946 | 31813 ft | 325 kts | 51° |
| 2026-05-04 15:48 | 38.24259 | 108.24491 | 31604 ft | 333 kts | 66° |
| 2026-05-04 15:48 | 38.24895 | 108.27263 | 32001 ft | 321 kts | 79° |
| 2026-05-04 15:48 | 38.24603 | 108.32698 | 32399 ft | 313 kts | 105° |
| 2026-05-04 15:49 | 38.23712 | 108.35295 | 31843 ft | 335 kts | 119° |
| 2026-05-04 15:49 | 38.22287 | 108.37773 | 31428 ft | 350 kts | 132° |
| 2026-05-04 15:49 | 38.20466 | 108.39782 | 31613 ft | 344 kts | 146° |
| 2026-05-04 15:49 | 38.18408 | 108.41134 | 32089 ft | 327 kts | 161° |
| 2026-05-04 15:50 | 38.16225 | 108.41773 | 32223 ft | 322 kts | 176° |
| 2026-05-04 15:50 | 38.13983 | 108.41707 | 31859 ft | 332 kts | 191° |
| 2026-05-04 15:50 | 38.11733 | 108.40918 | 31441 ft | 343 kts | 205° |
| 2026-05-04 15:50 | 38.09667 | 108.39468 | 31569 ft | 333 kts | 220° |
| 2026-05-04 15:51 | 38.08035 | 108.37526 | 31913 ft | 316 kts | 235° |
| 2026-05-04 15:51 | 38.06874 | 108.35228 | 31957 ft | 309 kts | 250° |
| 2026-05-04 15:51 | 38.06218 | 108.32657 | 31756 ft | 309 kts | 264° |
| 2026-05-04 15:51 | 38.06096 | 108.29984 | 31489 ft | 313 kts | 278° |
| 2026-05-04 15:52 | 38.06501 | 108.27261 | 31413 ft | 309 kts | 291° |
| 2026-05-04 15:52 | 38.07365 | 108.24896 | 31492 ft | 302 kts | 306° |
| 2026-05-04 15:52 | 38.08742 | 108.22891 | 31442 ft | 299 kts | 323° |
| 2026-05-04 15:52 | 38.10534 | 108.21491 | 31319 ft | 300 kts | 339° |
| 2026-05-04 15:53 | 38.12534 | 108.20838 | 31312 ft | 298 kts | 355° |
| 2026-05-04 15:53 | 38.14583 | 108.20958 | 31329 ft | 297 kts | 12° |
| 2026-05-04 15:53 | 38.16528 | 108.21798 | 31247 ft | 301 kts | 27° |
| 2026-05-04 15:53 | 38.18273 | 108.23351 | 31115 ft | 307 kts | 43° |
| 2026-05-04 15:54 | 38.19567 | 108.25478 | 31027 ft | 313 kts | 60° |
| 2026-05-04 15:54 | 38.20287 | 108.28123 | 31026 ft | 316 kts | 80° |
| 2026-05-04 15:54 | 38.20273 | 108.30909 | 31013 ft | 319 kts | 99° |
| 2026-05-04 15:54 | 38.19517 | 108.33569 | 30927 ft | 325 kts | 120° |
| 2026-05-04 15:55 | 38.18094 | 108.35816 | 30855 ft | 329 kts | 139° |
| 2026-05-04 15:55 | 38.16203 | 108.37386 | 30888 ft | 328 kts | 157° |
| 2026-05-04 15:55 | 38.13988 | 108.38142 | 30911 ft | 327 kts | 176° |
| 2026-05-04 15:55 | 38.11762 | 108.37991 | 30866 ft | 327 kts | 194° |
| 2026-05-04 15:56 | 38.09622 | 108.36977 | 30799 ft | 326 kts | 212° |
| 2026-05-04 15:56 | 38.07843 | 108.35316 | 30805 ft | 322 kts | 228° |
| 2026-05-04 15:56 | 38.06493 | 108.33105 | 30860 ft | 316 kts | 244° |
| 2026-05-04 15:56 | 38.05692 | 108.30620 | 30876 ft | 310 kts | 261° |
| 2026-05-04 15:57 | 38.05506 | 108.27882 | 30804 ft | 306 kts | 278° |
| 2026-05-04 15:57 | 38.05944 | 108.25375 | 30831 ft | 299 kts | 295° |
| 2026-05-04 15:57 | 38.06932 | 108.23048 | 30903 ft | 291 kts | 310° |
| 2026-05-04 15:57 | 38.08326 | 108.21226 | 30858 ft | 290 kts | 325° |
| 2026-05-04 15:58 | 38.10069 | 108.19949 | 30688 ft | 293 kts | 340° |
| 2026-05-04 15:58 | 38.12048 | 108.19320 | 30550 ft | 296 kts | 355° |
| 2026-05-04 15:58 | 38.14108 | 108.19402 | 30504 ft | 298 kts | 11° |
| 2026-05-04 15:58 | 38.16081 | 108.20221 | 30566 ft | 295 kts | 27° |
| 2026-05-04 15:59 | 38.17767 | 108.21708 | 30591 ft | 296 kts | 43° |
| 2026-05-04 15:59 | 38.19028 | 108.23705 | 30508 ft | 302 kts | 59° |
| 2026-05-04 15:59 | 38.19843 | 108.26224 | 30389 ft | 308 kts | 75° |
| 2026-05-04 15:59 | 38.20076 | 108.28926 | 30374 ft | 311 kts | 91° |
| 2026-05-04 16:00 | 38.19729 | 108.31649 | 30471 ft | 309 kts | 106° |
| 2026-05-04 16:00 | 38.18857 | 108.34120 | 30558 ft | 307 kts | 121° |
| 2026-05-04 16:00 | 38.17530 | 108.36220 | 30545 ft | 310 kts | 136° |
| 2026-05-04 16:00 | 38.15799 | 108.37868 | 30411 ft | 316 kts | 151° |
| 2026-05-04 16:01 | 38.13737 | 108.38958 | 30272 ft | 321 kts | 166° |
| 2026-05-04 16:01 | 38.11550 | 108.39374 | 30347 ft | 317 kts | 180° |
| 2026-05-04 16:01 | 38.09445 | 108.39123 | 30528 ft | 308 kts | 194° |
| 2026-05-04 16:01 | 38.07426 | 108.38234 | 30504 ft | 307 kts | 209° |
| 2026-05-04 16:02 | 38.05666 | 108.36784 | 30315 ft | 310 kts | 223° |
| 2026-05-04 16:02 | 38.04208 | 108.34808 | 30293 ft | 306 kts | 237° |
| 2026-05-04 16:02 | 38.02565 | 108.29984 | 30268 ft | 300 kts | 263° |
| 2026-05-04 16:03 | 38.02436 | 108.27353 | 30193 ft | 299 kts | 277° |
| 2026-05-04 16:03 | 38.02805 | 108.24844 | 30190 ft | 295 kts | 292° |
| 2026-05-04 16:03 | 38.03736 | 108.22515 | 30183 ft | 290 kts | 308° |
| 2026-05-04 16:03 | 38.05081 | 108.20651 | 30118 ft | 290 kts | 323° |
| 2026-05-04 16:04 | 38.06778 | 108.19292 | 30024 ft | 291 kts | 338° |
| 2026-05-04 16:04 | 38.10689 | 108.18517 | 30108 ft | 284 kts | 8° |
| 2026-05-04 16:04 | 38.12605 | 108.19170 | 30098 ft | 285 kts | 24° |
| 2026-05-04 16:05 | 38.14353 | 108.20513 | 29956 ft | 291 kts | 39° |
| 2026-05-04 16:05 | 38.15747 | 108.22413 | 29836 ft | 298 kts | 55° |
| 2026-05-04 16:05 | 38.17130 | 108.27329 | 29953 ft | 297 kts | 85° |
| 2026-05-04 16:06 | 38.17001 | 108.29935 | 30009 ft | 297 kts | 101° |
| 2026-05-04 16:06 | 38.14106 | 108.35914 | 29752 ft | 311 kts | 141° |
| 2026-05-04 16:07 | 38.11588 | 108.37672 | 29856 ft | 308 kts | 162° |
| 2026-05-04 16:07 | 38.05362 | 108.37237 | 29750 ft | 310 kts | 207° |
| 2026-05-04 16:08 | 38.03538 | 108.35779 | 29692 ft | 309 kts | 222° |
| 2026-05-04 16:08 | 38.00593 | 108.28982 | 29835 ft | 295 kts | 267° |
| 2026-05-04 16:09 | 38.01186 | 108.23876 | 29646 ft | 295 kts | 297° |
| 2026-05-04 16:09 | 38.03667 | 108.19912 | 29779 ft | 285 kts | 327° |
| 2026-05-04 16:10 | 38.07322 | 108.18156 | 29683 ft | 285 kts | 356° |
| 2026-05-04 16:11 | 38.12855 | 108.20401 | 29680 ft | 286 kts | 41° |
| 2026-05-04 16:11 | 38.14175 | 108.22287 | 29691 ft | 287 kts | 56° |
| 2026-05-04 16:12 | 38.15442 | 108.28862 | 29542 ft | 298 kts | 96° |
| 2026-05-04 16:12 | 38.11992 | 108.36213 | 29563 ft | 304 kts | 146° |
| 2026-05-04 16:13 | 38.08056 | 108.38068 | 29489 ft | 307 kts | 175° |
| 2026-05-04 16:13 | 38.04547 | 108.37597 | 29574 ft | 303 kts | 200° |
| 2026-05-04 16:14 | 38.01046 | 108.34778 | 29476 ft | 302 kts | 230° |
| 2026-05-04 16:14 | 37.99048 | 108.30190 | 29485 ft | 296 kts | 259° |
| 2026-05-04 16:15 | 37.99820 | 108.22768 | 29468 ft | 288 kts | 303° |
| 2026-05-04 16:16 | 38.02585 | 108.19207 | 29470 ft | 283 kts | 332° |
| 2026-05-04 16:16 | 38.08252 | 108.18211 | 29458 ft | 282 kts | 15° |
| 2026-05-04 16:17 | 38.11651 | 108.20666 | 29432 ft | 285 kts | 44° |
| 2026-05-04 16:18 | 38.13968 | 108.27480 | 29438 ft | 292 kts | 88° |
| 2026-05-04 16:18 | 38.13768 | 108.30051 | 29428 ft | 295 kts | 102° |
| 2026-05-04 16:19 | 38.10355 | 108.36444 | 29427 ft | 301 kts | 146° |
| 2026-05-04 16:19 | 38.06451 | 108.38330 | 29416 ft | 303 kts | 174° |
| 2026-05-04 16:20 | 38.00481 | 108.36504 | 29417 ft | 300 kts | 217° |
| 2026-05-04 16:20 | 37.97712 | 108.32618 | 29395 ft | 296 kts | 245° |
| 2026-05-04 16:21 | 37.96939 | 108.25157 | 29400 ft | 288 kts | 287° |
| 2026-05-04 16:22 | 37.98767 | 108.20738 | 29419 ft | 283 kts | 315° |
| 2026-05-04 16:22 | 38.03904 | 108.17477 | 29398 ft | 280 kts | 356° |
| 2026-05-04 16:23 | 38.09371 | 108.19580 | 29396 ft | 283 kts | 39° |
| 2026-05-04 16:24 | 38.12332 | 108.28540 | 29398 ft | 292 kts | 95° |
| 2026-05-04 16:25 | 38.10996 | 108.33389 | 29392 ft | 297 kts | 122° |
| 2026-05-04 16:26 | 38.04243 | 108.34716 | 30764 ft | 287 kts | 240° |
| 2026-05-04 16:26 | 38.03962 | 108.25898 | 25064 ft | 429 kts | 298° |
| 2026-05-04 16:27 | 38.06073 | 108.18695 | 24489 ft | 420 kts | 285° |
| 2026-05-04 16:28 | 38.07968 | 108.06992 | 23789 ft | 415 kts | 282° |
| 2026-05-04 16:28 | 38.12056 | 107.84725 | 25083 ft | 455 kts | 284° |
| 2026-05-04 16:29 | 38.18124 | 107.52502 | 27731 ft | 480 kts | 284° |
| 2026-05-04 16:30 | 38.22767 | 107.27443 | 29611 ft | 492 kts | 285° |
| 2026-05-04 16:31 | 38.25842 | 107.10652 | 31266 ft | 482 kts | 285° |
| 2026-05-04 16:31 | 38.30315 | 106.85982 | 33395 ft | 470 kts | 285° |
| 2026-05-04 16:32 | 38.34684 | 106.61588 | 33738 ft | 470 kts | 286° |
| 2026-05-04 16:33 | 38.40400 | 106.29182 | 33730 ft | 466 kts | 286° |
| 2026-05-04 16:34 | 38.41552 | 106.12784 | 33735 ft | 476 kts | 264° |
| 2026-05-04 16:34 | 38.39338 | 106.04762 | 33739 ft | 488 kts | 246° |
| 2026-05-04 16:35 | 38.14455 | 105.62888 | 33756 ft | 496 kts | 238° |
| 2026-05-04 16:36 | 38.01820 | 105.42023 | 33771 ft | 499 kts | 238° |
| 2026-05-04 16:37 | 37.89036 | 105.21054 | 33790 ft | 502 kts | 238° |
| 2026-05-04 16:38 | 37.71938 | 104.93205 | 33801 ft | 503 kts | 238° |
| 2026-05-04 16:39 | 37.58767 | 104.71905 | 33814 ft | 516 kts | 240° |
| 2026-05-04 16:39 | 37.49965 | 104.57764 | 33828 ft | 516 kts | 240° |
| 2026-05-04 16:40 | 37.32475 | 104.29078 | 33856 ft | 516 kts | 241° |
| 2026-05-04 16:41 | 37.14850 | 103.91380 | 33929 ft | 477 kts | 270° |
| 2026-05-04 16:42 | 37.17079 | 103.67947 | 33933 ft | 447 kts | 290° |
| 2026-05-04 16:43 | 37.19514 | 103.52699 | 33943 ft | 448 kts | 289° |
| 2026-05-04 16:43 | 37.23041 | 103.29772 | 33961 ft | 446 kts | 288° |
| 2026-05-04 16:45 | 37.29980 | 102.83803 | 33966 ft | 446 kts | 288° |
| 2026-05-04 16:46 | 37.35605 | 102.45586 | 33956 ft | 445 kts | 287° |
| 2026-05-04 16:47 | 37.41411 | 102.15611 | 33964 ft | 441 kts | 289° |
| 2026-05-04 16:48 | 37.47217 | 101.85614 | 33952 ft | 442 kts | 288° |
| 2026-05-04 16:49 | 37.55423 | 101.56877 | 33919 ft | 435 kts | 301° |
| 2026-05-04 16:50 | 37.66912 | 101.29967 | 33892 ft | 436 kts | 300° |
| 2026-05-04 16:51 | 37.75477 | 101.09655 | 33900 ft | 436 kts | 300° |
| 2026-05-04 16:52 | 37.86976 | 100.82691 | 33884 ft | 435 kts | 301° |
| 2026-05-04 16:53 | 37.95935 | 100.62707 | 33882 ft | 435 kts | 301° |
| 2026-05-04 16:54 | 38.07777 | 100.35894 | 33884 ft | 436 kts | 300° |
| 2026-05-04 16:55 | 38.25457 | 99.95451 | 33886 ft | 437 kts | 300° |
| 2026-05-04 16:56 | 38.40149 | 99.61453 | 33905 ft | 439 kts | 299° |
| 2026-05-04 16:57 | 38.48930 | 99.40952 | 33910 ft | 442 kts | 298° |
| 2026-05-04 16:58 | 38.60684 | 99.13301 | 33923 ft | 443 kts | 298° |
| 2026-05-04 17:00 | 38.78184 | 98.71682 | 33923 ft | 443 kts | 298° |
| 2026-05-04 17:01 | 38.92591 | 98.36990 | 33912 ft | 440 kts | 297° |
| 2026-05-04 17:02 | 39.03152 | 98.11314 | 33907 ft | 442 kts | 297° |
| 2026-05-04 17:03 | 39.11735 | 97.90288 | 33913 ft | 444 kts | 297° |
| 2026-05-04 17:03 | 39.20293 | 97.69176 | 33911 ft | 444 kts | 297° |
| 2026-05-04 17:04 | 39.31773 | 97.40714 | 33896 ft | 450 kts | 297° |
| 2026-05-04 17:05 | 39.43239 | 97.12051 | 33870 ft | 448 kts | 297° |
| 2026-05-04 17:06 | 39.51830 | 96.90541 | 33844 ft | 448 kts | 297° |
| 2026-05-04 17:07 | 39.59489 | 96.71355 | 33821 ft | 451 kts | 297° |
| 2026-05-04 17:07 | 39.66149 | 96.54552 | 33829 ft | 450 kts | 296° |
| 2026-05-04 17:08 | 39.74670 | 96.32810 | 33790 ft | 452 kts | 296° |
| 2026-05-04 17:09 | 39.80360 | 96.18223 | 33747 ft | 452 kts | 296° |
| 2026-05-04 17:09 | 39.86019 | 96.03642 | 33737 ft | 452 kts | 295° |
| 2026-05-04 17:10 | 40.00100 | 95.67049 | 33680 ft | 450 kts | 294° |
| 2026-05-04 17:11 | 40.05664 | 95.52468 | 33679 ft | 448 kts | 294° |
| 2026-05-04 17:12 | 40.13972 | 95.30560 | 33666 ft | 447 kts | 294° |
| 2026-05-04 17:13 | 40.27691 | 94.94331 | 33639 ft | 444 kts | 294° |
| 2026-05-04 17:14 | 40.41984 | 94.67844 | 33639 ft | 448 kts | 304° |
| 2026-05-04 17:15 | 40.53575 | 94.48636 | 33642 ft | 449 kts | 304° |
| 2026-05-04 17:16 | 40.69042 | 94.22771 | 33670 ft | 447 kts | 303° |
| 2026-05-04 17:17 | 40.84395 | 93.96882 | 33680 ft | 449 kts | 303° |
| 2026-05-04 17:18 | 41.00114 | 93.71394 | 33693 ft | 451 kts | 306° |
| 2026-05-04 17:19 | 41.16436 | 93.46081 | 33698 ft | 451 kts | 305° |
| 2026-05-04 17:20 | 41.32624 | 93.20659 | 33693 ft | 449 kts | 304° |
| 2026-05-04 17:20 | 41.44662 | 93.01613 | 33702 ft | 449 kts | 304° |
| 2026-05-04 17:21 | 41.60740 | 92.75993 | 33704 ft | 447 kts | 304° |
| 2026-05-04 17:22 | 41.68668 | 92.63274 | 33701 ft | 447 kts | 303° |
| 2026-05-04 17:23 | 41.84517 | 92.37692 | 33704 ft | 446 kts | 303° |
| 2026-05-04 17:24 | 41.96394 | 92.18375 | 33703 ft | 446 kts | 303° |
| 2026-05-04 17:25 | 42.12145 | 91.92567 | 33719 ft | 447 kts | 302° |
| 2026-05-04 17:26 | 42.28769 | 91.67227 | 33728 ft | 458 kts | 309° |
| 2026-05-04 17:27 | 42.51919 | 91.37552 | 33713 ft | 461 kts | 309° |
| 2026-05-04 17:28 | 42.70450 | 91.13527 | 33686 ft | 462 kts | 309° |
| 2026-05-04 17:29 | 42.95758 | 90.74481 | 33705 ft | 453 kts | 296° |
| 2026-05-04 17:31 | 43.12369 | 90.37606 | 33759 ft | 457 kts | 297° |
| 2026-05-04 17:32 | 43.29070 | 90.00190 | 33859 ft | 460 kts | 297° |
| 2026-05-04 17:33 | 43.42362 | 89.70060 | 33902 ft | 462 kts | 297° |
| 2026-05-04 17:34 | 43.55661 | 89.39601 | 33947 ft | 464 kts | 297° |
| 2026-05-04 17:35 | 43.72555 | 89.01586 | 33969 ft | 465 kts | 298° |
| 2026-05-04 17:36 | 43.79264 | 88.86353 | 33962 ft | 465 kts | 298° |
| 2026-05-04 17:36 | 43.85943 | 88.71101 | 33961 ft | 464 kts | 297° |
| 2026-05-04 17:37 | 43.92634 | 88.55755 | 33960 ft | 463 kts | 297° |
| 2026-05-04 17:37 | 43.99277 | 88.40429 | 33955 ft | 463 kts | 297° |
| 2026-05-04 17:38 | 44.05877 | 88.25130 | 33934 ft | 461 kts | 297° |
| 2026-05-04 17:38 | 44.12459 | 88.09777 | 33925 ft | 461 kts | 297° |
| 2026-05-04 17:39 | 44.23198 | 87.87444 | 33892 ft | 465 kts | 302° |
| 2026-05-04 17:39 | 44.30943 | 87.73103 | 33884 ft | 464 kts | 302° |
| 2026-05-04 17:40 | 44.38776 | 87.58688 | 33874 ft | 464 kts | 303° |
| 2026-05-04 17:40 | 44.46634 | 87.44420 | 33880 ft | 461 kts | 303° |
| 2026-05-04 17:41 | 44.54408 | 87.30165 | 33868 ft | 462 kts | 303° |
| 2026-05-04 17:41 | 44.62533 | 87.15968 | 33888 ft | 464 kts | 306° |
| 2026-05-04 17:42 | 44.70642 | 87.02048 | 33872 ft | 463 kts | 305° |
| 2026-05-04 17:42 | 44.78784 | 86.87938 | 33879 ft | 462 kts | 305° |
| 2026-05-04 17:43 | 44.86781 | 86.73971 | 33882 ft | 459 kts | 304° |
| 2026-05-04 17:43 | 44.94688 | 86.59789 | 33884 ft | 459 kts | 304° |
| 2026-05-04 17:44 | 45.02603 | 86.45583 | 33890 ft | 459 kts | 304° |
| 2026-05-04 17:44 | 45.10434 | 86.31470 | 33892 ft | 459 kts | 304° |
| 2026-05-04 17:45 | 45.18306 | 86.17211 | 33889 ft | 459 kts | 304° |
| 2026-05-04 17:45 | 45.26134 | 86.02959 | 33892 ft | 458 kts | 303° |
| 2026-05-04 17:46 | 45.33939 | 85.88678 | 33890 ft | 457 kts | 303° |
| 2026-05-04 17:46 | 45.41705 | 85.74397 | 33891 ft | 455 kts | 303° |
| 2026-05-04 17:47 | 45.48139 | 85.62508 | 33889 ft | 456 kts | 302° |
| 2026-05-04 17:47 | 45.57090 | 85.45892 | 33886 ft | 451 kts | 302° |
| 2026-05-04 17:48 | 45.63441 | 85.34035 | 33881 ft | 451 kts | 302° |
| 2026-05-04 17:48 | 45.71048 | 85.19783 | 33886 ft | 446 kts | 303° |
| 2026-05-04 17:49 | 45.78561 | 85.05753 | 33899 ft | 444 kts | 303° |
| 2026-05-04 17:49 | 45.86085 | 84.91628 | 33937 ft | 444 kts | 302° |
| 2026-05-04 17:50 | 45.93492 | 84.77653 | 33933 ft | 442 kts | 302° |
| 2026-05-04 17:50 | 46.00928 | 84.63547 | 33935 ft | 441 kts | 302° |
| 2026-05-04 17:51 | 46.08314 | 84.49473 | 33953 ft | 438 kts | 302° |
| 2026-05-04 17:51 | 46.15616 | 84.35475 | 33979 ft | 443 kts | 302° |
| 2026-05-04 17:52 | 46.23016 | 84.21232 | 34004 ft | 443 kts | 301° |
| 2026-05-04 17:52 | 46.30395 | 84.06933 | 34010 ft | 443 kts | 301° |
| 2026-05-04 17:53 | 46.37693 | 83.92623 | 34015 ft | 443 kts | 301° |
| 2026-05-04 17:53 | 46.45003 | 83.78248 | 34005 ft | 441 kts | 301° |
| 2026-05-04 17:54 | 46.52294 | 83.63832 | 34014 ft | 441 kts | 300° |
| 2026-05-04 17:54 | 46.59518 | 83.49470 | 34037 ft | 442 kts | 301° |
| 2026-05-04 17:55 | 46.66763 | 83.34974 | 34022 ft | 445 kts | 300° |
| 2026-05-04 17:55 | 46.73317 | 83.19739 | 34033 ft | 443 kts | 297° |
| 2026-05-04 17:56 | 46.79837 | 83.04407 | 34044 ft | 445 kts | 299° |
| 2026-05-04 17:56 | 46.85997 | 82.88672 | 34042 ft | 442 kts | 288° |
| 2026-05-04 17:57 | 46.88381 | 82.71259 | 34040 ft | 440 kts | 277° |
| 2026-05-04 17:57 | 46.90118 | 82.53504 | 34048 ft | 441 kts | 277° |
| 2026-05-04 17:58 | 46.91873 | 82.35853 | 34047 ft | 441 kts | 277° |
| 2026-05-04 17:58 | 46.93622 | 82.18046 | 34036 ft | 441 kts | 278° |
| 2026-05-04 17:59 | 46.95348 | 82.00162 | 34054 ft | 443 kts | 278° |
| 2026-05-04 18:00 | 46.97865 | 81.73402 | 34041 ft | 444 kts | 278° |
| 2026-05-04 18:00 | 46.99501 | 81.55500 | 34057 ft | 445 kts | 277° |
| 2026-05-04 18:01 | 47.01120 | 81.37533 | 34058 ft | 445 kts | 277° |
| 2026-05-04 18:01 | 47.02715 | 81.19500 | 34057 ft | 445 kts | 277° |
| 2026-05-04 18:02 | 47.05056 | 80.92491 | 34056 ft | 447 kts | 278° |
| 2026-05-04 18:02 | 47.06583 | 80.74330 | 34075 ft | 451 kts | 278° |
| 2026-05-04 18:03 | 47.08099 | 80.56013 | 34089 ft | 451 kts | 278° |
| 2026-05-04 18:03 | 47.09587 | 80.37666 | 34112 ft | 452 kts | 278° |
| 2026-05-04 18:04 | 47.11037 | 80.19434 | 34106 ft | 452 kts | 278° |
| 2026-05-04 18:05 | 47.13174 | 79.91864 | 34130 ft | 453 kts | 278° |
| 2026-05-04 18:05 | 47.14587 | 79.73478 | 34145 ft | 450 kts | 279° |
| 2026-05-04 18:06 | 47.16667 | 79.46103 | 34150 ft | 452 kts | 279° |
| 2026-05-04 18:06 | 47.18027 | 79.27653 | 34153 ft | 452 kts | 278° |
| 2026-05-04 18:07 | 47.19353 | 79.09306 | 34157 ft | 456 kts | 278° |
| 2026-05-04 18:07 | 47.20615 | 78.90678 | 34162 ft | 456 kts | 278° |
| 2026-05-04 18:08 | 47.21853 | 78.72069 | 34167 ft | 459 kts | 278° |
| 2026-05-04 18:08 | 47.23067 | 78.53437 | 34181 ft | 461 kts | 277° |
| 2026-05-04 18:09 | 47.25425 | 78.15736 | 34178 ft | 464 kts | 277° |
| 2026-05-04 18:10 | 47.26563 | 77.96794 | 34184 ft | 464 kts | 277° |
| 2026-05-04 18:10 | 47.27667 | 77.77886 | 34184 ft | 466 kts | 277° |
| 2026-05-04 18:11 | 47.28749 | 77.58822 | 34181 ft | 467 kts | 277° |
| 2026-05-04 18:11 | 47.29792 | 77.39874 | 34188 ft | 468 kts | 277° |
| 2026-05-04 18:12 | 47.30310 | 77.30237 | 34819 ft | 463 kts | 277° |
| 2026-05-04 18:12 | 47.30808 | 77.20812 | 35446 ft | 460 kts | 276° |
| 2026-05-04 18:12 | 47.31295 | 77.11489 | 35897 ft | 459 kts | 276° |
| 2026-05-04 18:12 | 47.31815 | 77.02094 | 36339 ft | 458 kts | 278° |
| 2026-05-04 18:13 | 47.32742 | 76.92865 | 36733 ft | 457 kts | 281° |
| 2026-05-04 18:13 | 47.33791 | 76.83612 | 37115 ft | 456 kts | 280° |
| 2026-05-04 18:13 | 47.35702 | 76.65159 | 37837 ft | 455 kts | 279° |
| 2026-05-04 18:14 | 47.36616 | 76.55868 | 38103 ft | 456 kts | 279° |
| 2026-05-04 18:14 | 47.37515 | 76.46658 | 38381 ft | 455 kts | 279° |
| 2026-05-04 18:14 | 47.38411 | 76.37421 | 38695 ft | 454 kts | 278° |
| 2026-05-04 18:15 | 47.40183 | 76.18924 | 39083 ft | 455 kts | 279° |
| 2026-05-04 18:15 | 47.41924 | 76.00451 | 39170 ft | 459 kts | 279° |
| 2026-05-04 18:16 | 47.43654 | 75.81752 | 39168 ft | 459 kts | 279° |
| 2026-05-04 18:16 | 47.45357 | 75.62999 | 39169 ft | 459 kts | 279° |
| 2026-05-04 18:17 | 47.47838 | 75.35028 | 39173 ft | 459 kts | 278° |
| 2026-05-04 18:18 | 47.50259 | 75.06933 | 39179 ft | 457 kts | 279° |
| 2026-05-04 18:18 | 47.51825 | 74.88318 | 39162 ft | 457 kts | 278° |
| 2026-05-04 18:19 | 47.54126 | 74.60259 | 39171 ft | 457 kts | 278° |
| 2026-05-04 18:19 | 47.55615 | 74.41626 | 39151 ft | 457 kts | 278° |
| 2026-05-04 18:20 | 47.57083 | 74.22859 | 39158 ft | 457 kts | 278° |
| 2026-05-04 18:20 | 47.58504 | 74.04298 | 39156 ft | 455 kts | 278° |
| 2026-05-04 18:21 | 47.59905 | 73.85617 | 39150 ft | 456 kts | 278° |
| 2026-05-04 18:21 | 47.61275 | 73.66910 | 39154 ft | 456 kts | 278° |
| 2026-05-04 18:22 | 47.62619 | 73.48138 | 39145 ft | 456 kts | 278° |
| 2026-05-04 18:22 | 47.63925 | 73.29460 | 39152 ft | 457 kts | 277° |
| 2026-05-04 18:23 | 47.65197 | 73.10830 | 39154 ft | 455 kts | 277° |